Terminal Aerodrome Forecast
Issued by NWS Charleston, SC

Current Version | Previous Version | Text Only | Print | Product List | Glossary On
Versions: 1 2 3 4 5 6 7 8 9 10 11 12 13 14 15 16 17
000
FTUS42 KCHS 010521
TAFSAV
TAF
KSAV 010521Z 0106/0206 VRB03KT P6SM SCT015 BKN250
     FM011500 VRB05KT P6SM SCT025 BKN060
      TEMPO 0115/0119 5SM SHRA BKN025
     FM011900 16007KT P6SM VCSH SCT030 BKN100
     FM020000 21004KT P6SM SCT015 BKN250=

USA.gov is the U.S. government's official web portal to all federal, state and local government web resources and services.